Time;durP1;ratioP1;P1;durP2;ratioP2;P2;SDS_P1;SDS_P2;PMS_P1;PMS_P2;Temp;Humidity;BMP_temperature;BMP_pressure;BME280_temperature;BME280_humidity;BME280_pressure;Samples;Min_cycle;Max_cycle;Signal;HPM_P1;HPM_P2
2024/01/06 00:01:45;;;;;;;21.58;14.82;;;1.90;99.90;;;;;;5107269;28;20407;-79
2024/01/06 00:04:10;;;;;;;21.95;15.30;;;1.90;99.90;;;;;;5109050;28;20471;-79
2024/01/06 00:06:36;;;;;;;23.87;15.47;;;1.90;99.90;;;;;;5105864;28;20989;-79
2024/01/06 00:09:02;;;;;;;21.92;15.15;;;2.00;99.90;;;;;;5109221;28;20406;-79
2024/01/06 00:11:27;;;;;;;20.45;14.70;;;2.00;99.90;;;;;;5107455;28;20415;-79
2024/01/06 00:13:53;;;;;;;22.87;15.63;;;1.90;99.90;;;;;;5108484;28;20400;-79
2024/01/06 00:16:20;;;;;;;23.60;15.80;;;2.00;99.90;;;;;;5105791;28;20852;-79
2024/01/06 00:18:46;;;;;;;21.30;14.90;;;2.00;99.90;;;;;;5106646;28;20408;-79
2024/01/06 00:21:12;;;;;;;21.50;14.75;;;1.90;99.90;;;;;;5104344;28;20404;-79
2024/01/06 00:23:38;;;;;;;21.53;14.00;;;1.90;99.90;;;;;;5107494;28;20436;-79
2024/01/06 00:26:04;;;;;;;21.98;13.93;;;1.90;99.90;;;;;;5103567;28;20392;-79
2024/01/06 00:28:30;;;;;;;20.00;13.82;;;1.90;99.90;;;;;;5106421;28;20521;-79
2024/01/06 00:30:55;;;;;;;18.67;14.17;;;1.90;99.90;;;;;;5104147;28;20495;-79
2024/01/06 00:33:21;;;;;;;19.33;14.30;;;1.90;99.90;;;;;;5106165;28;20396;-79
2024/01/06 00:35:47;;;;;;;19.40;13.50;;;1.90;99.90;;;;;;5103171;28;20405;-79
2024/01/06 00:38:12;;;;;;;19.33;13.57;;;1.90;99.90;;;;;;5105800;28;20408;-79
2024/01/06 00:40:38;;;;;;;18.38;12.98;;;1.80;99.90;;;;;;5104635;28;20404;-79
2024/01/06 00:43:04;;;;;;;20.17;13.13;;;1.80;99.90;;;;;;5105401;28;20433;-79
2024/01/06 00:45:30;;;;;;;16.60;12.18;;;1.80;99.90;;;;;;5100433;28;20411;-79
2024/01/06 00:47:56;;;;;;;17.70;12.40;;;1.80;99.90;;;;;;5105990;28;20441;-79
2024/01/06 00:50:22;;;;;;;18.55;12.20;;;1.80;99.90;;;;;;5099081;28;20404;-79
2024/01/06 00:52:47;;;;;;;15.65;11.82;;;1.80;99.90;;;;;;5099383;28;20784;-79
2024/01/06 00:55:13;;;;;;;17.40;12.30;;;1.80;99.90;;;;;;5102031;28;20424;-79
2024/01/06 00:57:39;;;;;;;19.67;14.33;;;1.80;99.90;;;;;;5098197;28;20423;-79
2024/01/06 01:00:05;;;;;;;19.70;12.55;;;1.80;99.90;;;;;;5092839;28;20418;-79
2024/01/06 01:02:31;;;;;;;16.15;12.07;;;1.80;99.90;;;;;;5098283;28;20404;-79
2024/01/06 01:04:57;;;;;;;17.13;11.98;;;1.80;99.90;;;;;;5093793;28;20425;-79
2024/01/06 01:07:24;;;;;;;18.50;12.43;;;1.80;99.90;;;;;;5097915;28;20396;-79
2024/01/06 01:09:50;;;;;;;15.75;11.88;;;1.80;99.90;;;;;;5093746;28;20400;-79
2024/01/06 01:12:15;;;;;;;14.37;11.30;;;1.80;99.90;;;;;;5093613;28;21179;-79
2024/01/06 01:14:41;;;;;;;15.70;11.38;;;1.70;99.90;;;;;;5093684;28;20440;-79
2024/01/06 01:17:06;;;;;;;14.90;11.07;;;1.70;99.90;;;;;;5088723;28;20766;-79
2024/01/06 01:19:32;;;;;;;15.17;11.10;;;1.70;99.90;;;;;;5094286;28;20779;-79
2024/01/06 01:21:58;;;;;;;15.18;11.55;;;1.70;99.90;;;;;;5091096;28;20762;-79
2024/01/06 01:24:23;;;;;;;15.32;11.68;;;1.70;99.90;;;;;;5092392;28;20441;-79
2024/01/06 01:26:49;;;;;;;13.83;11.00;;;1.70;99.90;;;;;;5092479;28;20465;-79
2024/01/06 01:29:16;;;;;;;15.93;11.83;;;1.70;99.90;;;;;;5081622;28;20479;-79
2024/01/06 01:31:42;;;;;;;15.32;11.60;;;1.70;99.90;;;;;;5086437;28;20997;-79
2024/01/06 01:34:08;;;;;;;15.45;11.70;;;1.70;99.90;;;;;;5091128;28;20405;-79
2024/01/06 01:36:33;;;;;;;15.05;11.77;;;1.70;99.90;;;;;;5101873;28;20481;-79
2024/01/06 01:38:59;;;;;;;15.40;11.32;;;1.70;99.90;;;;;;5091400;28;20553;-79
2024/01/06 01:41:25;;;;;;;14.63;11.10;;;1.70;99.90;;;;;;5107039;28;20491;-79
2024/01/06 01:43:57;;;;;;;15.98;11.30;;;1.70;99.90;;;;;;5105146;28;20440;-79
2024/01/06 01:46:25;;;;;;;16.70;11.90;;;1.70;99.90;;;;;;5096144;28;20408;-79
2024/01/06 01:48:51;;;;;;;15.32;11.38;;;1.70;99.90;;;;;;5092861;28;20769;-79
2024/01/06 01:51:18;;;;;;;16.17;11.37;;;1.70;99.90;;;;;;5104633;28;20400;-78
2024/01/06 01:53:44;;;;;;;15.93;11.40;;;1.70;99.90;;;;;;5105983;28;20408;-79
2024/01/06 01:56:10;;;;;;;15.73;11.52;;;1.60;99.90;;;;;;5104363;28;20802;-79
2024/01/06 01:58:36;;;;;;;15.93;11.68;;;1.60;99.90;;;;;;5105393;28;20400;-78
2024/01/06 02:01:02;;;;;;;16.73;11.40;;;1.60;99.90;;;;;;5104246;28;20450;-79
2024/01/06 02:03:30;;;;;;;14.50;10.97;;;1.50;99.90;;;;;;5097316;28;20426;-79
2024/01/06 02:05:56;;;;;;;15.68;11.60;;;1.60;99.90;;;;;;5099382;28;20427;-78
2024/01/06 02:08:22;;;;;;;14.88;11.70;;;1.50;99.90;;;;;;5102993;28;20408;-79
2024/01/06 02:10:48;;;;;;;16.05;11.60;;;1.50;99.90;;;;;;5105507;28;20396;-80
2024/01/06 02:13:13;;;;;;;16.02;12.02;;;1.50;99.90;;;;;;5104113;28;20856;-79
2024/01/06 02:15:39;;;;;;;15.40;11.52;;;1.50;99.90;;;;;;5105361;28;20495;-79
2024/01/06 02:18:05;;;;;;;15.55;11.38;;;1.50;99.90;;;;;;5091300;28;20400;-79
2024/01/06 02:20:31;;;;;;;16.33;11.75;;;1.50;99.90;;;;;;5105130;28;20404;-79
2024/01/06 02:22:59;;;;;;;15.13;11.15;;;1.50;99.90;;;;;;5103465;28;20393;-79
2024/01/06 02:25:25;;;;;;;14.90;10.75;;;1.50;99.90;;;;;;5104582;28;20449;-79
2024/01/06 02:27:50;;;;;;;14.17;10.60;;;1.40;99.90;;;;;;5102897;28;20483;-79
2024/01/06 02:30:16;;;;;;;14.70;11.33;;;1.40;99.90;;;;;;5104171;28;20392;-79
2024/01/06 02:32:41;;;;;;;15.40;11.23;;;1.40;99.90;;;;;;5101022;28;20487;-78
2024/01/06 02:35:07;;;;;;;15.03;10.63;;;1.40;99.90;;;;;;5103807;28;20457;-79
2024/01/06 02:37:33;;;;;;;14.63;10.93;;;1.30;99.90;;;;;;5097921;28;20402;-80
2024/01/06 02:39:58;;;;;;;13.80;10.93;;;1.30;99.90;;;;;;5099661;28;20404;-79
2024/01/06 02:42:25;;;;;;;15.45;11.15;;;1.30;99.90;;;;;;5103797;28;20435;-79
2024/01/06 02:44:51;;;;;;;14.77;10.73;;;1.30;99.90;;;;;;5104149;28;20447;-79
2024/01/06 02:47:16;;;;;;;13.45;10.75;;;1.30;99.90;;;;;;5103936;28;20400;-78
2024/01/06 02:49:42;;;;;;;15.40;11.30;;;1.30;99.90;;;;;;5105117;28;20766;-79
2024/01/06 02:52:08;;;;;;;14.82;11.38;;;1.30;99.90;;;;;;5102554;28;20493;-79
2024/01/06 02:54:33;;;;;;;15.37;11.40;;;1.30;99.90;;;;;;5104688;28;20775;-80
2024/01/06 02:56:59;;;;;;;14.95;11.60;;;1.30;99.90;;;;;;5098545;28;20891;-79
2024/01/06 02:59:24;;;;;;;16.10;12.27;;;1.30;99.90;;;;;;5097420;28;20415;-79
2024/01/06 03:01:50;;;;;;;17.27;12.40;;;1.30;99.90;;;;;;5084908;28;20407;-79
2024/01/06 03:04:15;;;;;;;17.48;12.32;;;1.40;99.90;;;;;;5104382;28;20443;-79
2024/01/06 03:06:41;;;;;;;18.25;12.70;;;1.30;99.90;;;;;;5084340;28;20400;-79
2024/01/06 03:09:07;;;;;;;16.93;12.63;;;1.40;99.90;;;;;;5105412;28;20400;-79
2024/01/06 03:11:33;;;;;;;18.50;12.93;;;1.40;99.90;;;;;;5101613;28;20414;-79
2024/01/06 03:13:58;;;;;;;18.13;13.27;;;1.40;99.90;;;;;;5105528;28;20890;-79
2024/01/06 03:16:24;;;;;;;17.10;13.03;;;1.40;99.90;;;;;;5101982;28;20433;-79
2024/01/06 03:18:49;;;;;;;18.17;13.00;;;1.30;99.90;;;;;;5103387;28;20436;-78
2024/01/06 03:21:20;;;;;;;16.98;12.82;;;1.40;99.90;;;;;;5100161;28;20404;-79
2024/01/06 03:23:48;;;;;;;19.45;13.50;;;1.30;99.90;;;;;;5104082;28;20855;-79
2024/01/06 03:26:14;;;;;;;19.38;14.05;;;1.40;99.90;;;;;;5099624;28;20444;-79
2024/01/06 03:28:39;;;;;;;21.83;14.80;;;1.40;99.90;;;;;;5104194;28;20478;-79
2024/01/06 03:31:05;;;;;;;22.47;15.70;;;1.40;99.90;;;;;;5100968;28;20465;-79
2024/01/06 03:33:30;;;;;;;20.98;15.63;;;1.40;99.90;;;;;;5093108;28;20413;-79
2024/01/06 03:35:56;;;;;;;22.90;15.03;;;1.40;99.90;;;;;;5083711;28;20455;-77
2024/01/06 03:38:22;;;;;;;18.87;14.80;;;1.40;99.90;;;;;;5073898;28;20758;-79
2024/01/06 03:40:47;;;;;;;19.73;14.20;;;1.40;99.90;;;;;;5101366;28;20438;-79
2024/01/06 03:43:13;;;;;;;21.17;14.70;;;1.40;99.90;;;;;;5104943;28;20475;-79
2024/01/06 03:45:38;;;;;;;18.90;13.70;;;1.40;99.90;;;;;;5104851;28;20404;-79
2024/01/06 03:48:04;;;;;;;18.85;13.52;;;1.40;99.90;;;;;;5108820;28;20400;-78
2024/01/06 03:50:30;;;;;;;17.92;14.07;;;1.40;99.90;;;;;;5089871;28;20491;-79
2024/01/06 03:52:55;;;;;;;18.60;13.20;;;1.40;99.90;;;;;;5090513;28;20402;-79
2024/01/06 03:55:21;;;;;;;19.25;14.48;;;1.40;99.90;;;;;;5105244;28;20407;-79
2024/01/06 03:57:47;;;;;;;20.15;14.13;;;1.40;99.90;;;;;;5108857;28;20399;-79
2024/01/06 04:00:13;;;;;;;19.02;14.80;;;1.40;99.90;;;;;;5104439;28;20854;-79
2024/01/06 04:02:39;;;;;;;19.67;14.55;;;1.40;99.90;;;;;;5107534;28;20413;-78
2024/01/06 04:05:05;;;;;;;18.63;14.27;;;1.40;99.90;;;;;;5093004;28;20439;-79
2024/01/06 04:07:30;;;;;;;19.50;13.60;;;1.40;99.90;;;;;;5096071;28;20426;-78
2024/01/06 04:09:56;;;;;;;17.53;13.53;;;1.40;99.90;;;;;;5102781;28;20473;-79
2024/01/06 04:12:22;;;;;;;17.60;14.15;;;1.40;99.90;;;;;;5107160;28;20412;-79
2024/01/06 04:14:47;;;;;;;18.95;14.20;;;1.40;99.90;;;;;;5099738;28;20983;-79
2024/01/06 04:17:13;;;;;;;18.93;13.83;;;1.40;99.90;;;;;;5099218;28;20411;-79
2024/01/06 04:19:38;;;;;;;19.63;14.90;;;1.30;99.90;;;;;;5102285;28;20499;-78
2024/01/06 04:22:04;;;;;;;19.73;14.18;;;1.30;99.90;;;;;;5107642;28;20404;-79
2024/01/06 04:24:30;;;;;;;19.27;13.93;;;1.30;99.90;;;;;;5098914;28;20454;-79
2024/01/06 04:26:55;;;;;;;19.13;13.90;;;1.30;99.90;;;;;;5106205;28;20528;-79
2024/01/06 04:29:21;;;;;;;18.80;14.30;;;1.30;99.90;;;;;;5091731;28;20417;-79
2024/01/06 04:31:47;;;;;;;17.15;13.75;;;1.40;99.90;;;;;;5104799;28;20412;-79
2024/01/06 04:34:12;;;;;;;20.10;14.00;;;1.40;99.90;;;;;;5099946;28;20410;-79
2024/01/06 04:36:38;;;;;;;17.70;13.40;;;1.40;99.90;;;;;;5104400;28;20984;-79
2024/01/06 04:39:03;;;;;;;17.10;12.98;;;1.40;99.90;;;;;;5102535;28;20475;-78
2024/01/06 04:41:29;;;;;;;18.00;13.53;;;1.30;99.90;;;;;;5100617;28;20399;-79
2024/01/06 04:43:55;;;;;;;16.45;13.23;;;1.30;99.90;;;;;;5105033;28;20432;-79
2024/01/06 04:46:21;;;;;;;16.02;12.70;;;1.40;99.90;;;;;;5107893;28;21285;-79
2024/01/06 04:48:47;;;;;;;17.17;12.25;;;1.40;99.90;;;;;;5103229;28;20405;-79
2024/01/06 04:51:13;;;;;;;15.20;12.57;;;1.30;99.90;;;;;;5106442;28;20405;-79
2024/01/06 04:53:39;;;;;;;16.30;12.40;;;1.40;99.90;;;;;;5103253;28;20420;-78
2024/01/06 04:56:04;;;;;;;14.23;11.70;;;1.40;99.90;;;;;;5104596;28;20415;-79
2024/01/06 04:58:30;;;;;;;15.45;11.45;;;1.40;99.90;;;;;;5091788;28;20791;-79
2024/01/06 05:00:56;;;;;;;15.63;11.90;;;1.30;99.90;;;;;;5106629;28;20437;-79
2024/01/06 05:03:22;;;;;;;15.63;11.60;;;1.40;99.90;;;;;;5104066;28;20474;-78
2024/01/06 05:05:47;;;;;;;18.30;12.53;;;1.40;99.90;;;;;;5107915;28;20430;-78
2024/01/06 05:08:13;;;;;;;18.47;12.53;;;1.40;99.90;;;;;;5104002;28;20809;-79
2024/01/06 05:10:39;;;;;;;15.43;11.80;;;1.40;99.90;;;;;;5106801;28;20436;-79
2024/01/06 05:13:04;;;;;;;16.97;11.87;;;1.40;99.90;;;;;;5086720;28;20774;-79
2024/01/06 05:15:30;;;;;;;15.53;11.67;;;1.40;99.90;;;;;;5106164;28;20503;-79
2024/01/06 05:17:55;;;;;;;15.55;11.73;;;1.40;99.90;;;;;;5104101;28;20404;-78
2024/01/06 05:20:21;;;;;;;17.67;11.70;;;1.40;99.90;;;;;;5090210;28;20407;-79
2024/01/06 05:22:47;;;;;;;15.13;11.60;;;1.40;99.90;;;;;;5105002;28;20399;-79
2024/01/06 05:25:12;;;;;;;14.85;11.38;;;1.40;99.90;;;;;;5108512;28;20871;-78
2024/01/06 05:27:38;;;;;;;14.90;10.87;;;1.40;99.90;;;;;;5094098;28;20408;-78
2024/01/06 05:30:04;;;;;;;14.50;11.60;;;1.40;99.90;;;;;;5097065;28;20394;-79
2024/01/06 05:32:29;;;;;;;15.95;12.07;;;1.40;99.90;;;;;;5099074;28;20406;-79
2024/01/06 05:34:55;;;;;;;14.70;11.77;;;1.50;99.90;;;;;;5098698;28;20505;-78
2024/01/06 05:37:21;;;;;;;16.27;11.45;;;1.50;99.90;;;;;;5083429;28;20476;-78
2024/01/06 05:39:47;;;;;;;15.82;11.77;;;1.50;99.90;;;;;;5087765;28;20420;-78
2024/01/06 05:42:14;;;;;;;15.87;11.53;;;1.50;99.90;;;;;;5093779;28;20465;-78
2024/01/06 05:44:40;;;;;;;17.13;11.85;;;1.50;99.90;;;;;;5104980;28;20428;-79
2024/01/06 05:47:06;;;;;;;15.95;11.80;;;1.50;99.90;;;;;;5103375;28;20804;-79
2024/01/06 05:49:32;;;;;;;16.80;11.40;;;1.50;99.90;;;;;;5105743;28;20408;-79
2024/01/06 05:51:57;;;;;;;14.82;11.45;;;1.50;99.90;;;;;;5103545;28;20755;-79
2024/01/06 05:54:23;;;;;;;15.25;11.77;;;1.60;99.90;;;;;;5096802;28;20398;-78
2024/01/06 05:56:49;;;;;;;14.03;11.63;;;1.50;99.90;;;;;;5101966;28;20463;-78
2024/01/06 05:59:14;;;;;;;15.47;11.40;;;1.50;99.90;;;;;;5106128;28;20465;-79
2024/01/06 06:01:40;;;;;;;15.40;11.82;;;1.50;99.90;;;;;;5102312;28;20396;-78
2024/01/06 06:04:06;;;;;;;13.90;11.57;;;1.50;99.90;;;;;;5096816;28;20959;-79
2024/01/06 06:06:32;;;;;;;15.17;11.27;;;1.50;99.90;;;;;;5090802;28;21629;-79
2024/01/06 06:08:58;;;;;;;14.85;10.88;;;1.50;99.90;;;;;;5096330;28;20930;-78
2024/01/06 06:11:24;;;;;;;13.60;11.13;;;1.60;99.80;;;;;;5100491;28;20414;-78
2024/01/06 06:13:49;;;;;;;14.88;11.65;;;1.60;99.80;;;;;;5105620;28;20430;-79
2024/01/06 06:16:15;;;;;;;16.33;11.37;;;1.60;99.60;;;;;;5089066;28;20489;-79
2024/01/06 06:18:41;;;;;;;13.38;10.75;;;1.60;99.30;;;;;;5096109;28;20389;-78
2024/01/06 06:21:09;;;;;;;14.52;11.40;;;1.60;99.30;;;;;;5099877;28;20403;-79
2024/01/06 06:23:35;;;;;;;14.43;11.50;;;1.60;99.30;;;;;;5102049;28;20424;-78
2024/01/06 06:26:08;;;;;;;14.77;11.77;;;1.60;99.30;;;;;;5099098;28;20394;-79
2024/01/06 06:28:34;;;;;;;14.87;11.90;;;1.60;99.40;;;;;;5103598;28;20912;-79
2024/01/06 06:31:03;;;;;;;16.02;12.63;;;1.60;99.30;;;;;;5095108;28;20394;-79
2024/01/06 06:33:29;;;;;;;17.77;13.07;;;1.60;99.30;;;;;;5103402;28;20397;-79
2024/01/06 06:35:55;;;;;;;16.20;12.82;;;1.60;99.10;;;;;;5097853;28;20390;-78
2024/01/06 06:38:21;;;;;;;16.92;12.80;;;1.70;99.00;;;;;;5092186;28;20401;-78
2024/01/06 06:40:47;;;;;;;14.63;12.65;;;1.70;99.20;;;;;;5103457;28;20781;-78
2024/01/06 06:43:14;;;;;;;15.38;12.30;;;1.70;99.10;;;;;;5104451;28;20448;-79
2024/01/06 06:45:39;;;;;;;15.70;12.98;;;1.70;99.10;;;;;;5099955;28;20744;-78
2024/01/06 06:48:06;;;;;;;14.52;12.15;;;1.70;99.00;;;;;;5103723;28;20399;-78
2024/01/06 06:50:32;;;;;;;18.15;13.23;;;1.70;98.80;;;;;;5098386;28;20404;-79
2024/01/06 06:52:58;;;;;;;17.30;12.50;;;1.70;98.70;;;;;;5103747;28;20812;-78
2024/01/06 06:55:23;;;;;;;17.90;13.67;;;1.70;98.70;;;;;;5101273;28;20461;-78
2024/01/06 06:57:49;;;;;;;17.10;13.90;;;1.70;98.80;;;;;;5103782;28;20496;-78
2024/01/06 07:00:16;;;;;;;18.08;14.48;;;1.70;98.60;;;;;;5090783;28;20461;-79
2024/01/06 07:02:41;;;;;;;17.45;14.73;;;1.70;98.40;;;;;;5102117;28;20487;-79
2024/01/06 07:05:07;;;;;;;18.10;14.90;;;1.70;98.50;;;;;;5099297;28;20424;-78
2024/01/06 07:07:33;;;;;;;18.95;15.32;;;1.70;98.50;;;;;;5101839;28;20454;-78
2024/01/06 07:10:01;;;;;;;19.95;16.38;;;1.70;98.60;;;;;;5096449;28;20401;-78
2024/01/06 07:12:27;;;;;;;20.60;16.07;;;1.70;98.60;;;;;;5101017;28;21262;-78
2024/01/06 07:14:53;;;;;;;20.40;16.27;;;1.70;98.50;;;;;;5097922;28;20483;-78
2024/01/06 07:17:18;;;;;;;21.90;16.77;;;1.70;98.60;;;;;;5102301;28;20410;-78
2024/01/06 07:19:44;;;;;;;21.40;17.05;;;1.70;98.70;;;;;;5090896;28;20413;-78
2024/01/06 07:22:10;;;;;;;21.00;17.52;;;1.70;98.80;;;;;;5078845;28;20445;-79
2024/01/06 07:24:36;;;;;;;22.97;18.00;;;1.70;98.70;;;;;;5102842;28;20436;-78
2024/01/06 07:27:03;;;;;;;23.90;17.80;;;1.70;98.70;;;;;;5096195;28;20909;-79
2024/01/06 07:29:29;;;;;;;21.42;17.63;;;1.80;98.80;;;;;;5103609;28;20966;-78
2024/01/06 07:31:55;;;;;;;24.30;18.88;;;1.80;98.70;;;;;;5103797;28;20404;-78
2024/01/06 07:34:20;;;;;;;25.73;19.23;;;1.80;98.70;;;;;;5101641;28;20805;-78
2024/01/06 07:36:46;;;;;;;23.20;18.93;;;1.70;98.60;;;;;;5096673;28;20919;-78
2024/01/06 07:39:11;;;;;;;23.20;18.90;;;1.70;98.60;;;;;;5093242;28;20411;-78
2024/01/06 07:41:37;;;;;;;24.77;19.45;;;1.70;98.60;;;;;;5107949;28;20408;-78
2024/01/06 07:44:03;;;;;;;23.40;18.90;;;1.70;98.60;;;;;;5104708;28;20424;-78
2024/01/06 07:46:29;;;;;;;23.20;18.98;;;1.70;98.60;;;;;;5108810;28;20396;-78
2024/01/06 07:48:55;;;;;;;23.50;19.10;;;1.70;98.60;;;;;;5087104;28;20396;-78
2024/01/06 07:51:21;;;;;;;25.77;18.70;;;1.70;98.60;;;;;;5089376;28;20404;-78
2024/01/06 07:53:46;;;;;;;22.43;18.17;;;1.70;98.60;;;;;;5104509;28;20408;-78
2024/01/06 07:56:12;;;;;;;22.17;17.52;;;1.70;98.60;;;;;;5108160;28;20770;-78
2024/01/06 07:58:37;;;;;;;23.17;17.65;;;1.80;98.60;;;;;;5105076;28;20453;-78
2024/01/06 08:01:03;;;;;;;23.03;18.50;;;1.80;98.40;;;;;;5106988;28;20404;-78
2024/01/06 08:03:29;;;;;;;21.05;17.83;;;1.70;98.40;;;;;;5105187;28;20416;-79
2024/01/06 08:05:55;;;;;;;22.40;17.25;;;1.80;98.40;;;;;;5107614;28;20412;-77
2024/01/06 08:08:20;;;;;;;22.80;17.67;;;1.80;98.50;;;;;;5101998;28;20419;-77
2024/01/06 08:10:46;;;;;;;24.13;18.30;;;1.80;98.40;;;;;;5107455;28;20400;-77
2024/01/06 08:13:12;;;;;;;21.43;17.87;;;1.80;98.50;;;;;;5102796;28;20442;-77
2024/01/06 08:15:38;;;;;;;22.50;17.90;;;1.80;98.40;;;;;;5106287;28;20397;-77
2024/01/06 08:18:04;;;;;;;21.93;17.60;;;1.80;98.30;;;;;;5102131;28;20408;-76
2024/01/06 08:20:29;;;;;;;23.40;17.77;;;1.80;98.40;;;;;;5105746;28;20400;-76
2024/01/06 08:22:55;;;;;;;21.67;17.30;;;1.80;98.40;;;;;;5092585;28;20402;-76
2024/01/06 08:25:21;;;;;;;22.35;17.17;;;1.80;98.30;;;;;;5087700;28;21036;-77
2024/01/06 08:27:47;;;;;;;23.03;17.77;;;1.80;98.30;;;;;;5097877;28;20410;-78
2024/01/06 08:30:13;;;;;;;22.25;18.13;;;1.80;98.30;;;;;;5085519;28;20408;-79
2024/01/06 08:32:39;;;;;;;22.15;17.52;;;1.80;98.20;;;;;;5085369;28;20412;-77
2024/01/06 08:35:05;;;;;;;21.80;17.10;;;1.80;98.20;;;;;;5084206;28;20398;-78
2024/01/06 08:37:30;;;;;;;23.60;17.67;;;1.80;98.20;;;;;;5081306;28;20410;-79
2024/01/06 08:39:56;;;;;;;21.50;17.30;;;1.80;98.20;;;;;;5081143;28;20885;-76
2024/01/06 08:42:23;;;;;;;21.92;17.33;;;1.80;98.20;;;;;;5075368;28;20898;-78
2024/01/06 08:44:48;;;;;;;21.10;16.25;;;1.80;98.10;;;;;;5079533;28;20435;-78
2024/01/06 08:47:14;;;;;;;20.30;16.63;;;1.80;98.10;;;;;;5089707;28;20437;-77
2024/01/06 08:49:40;;;;;;;19.00;15.97;;;1.80;98.10;;;;;;5076289;28;20465;-78
2024/01/06 08:52:05;;;;;;;20.77;16.73;;;1.80;98.10;;;;;;5090364;28;20770;-79
2024/01/06 08:54:32;;;;;;;21.10;16.83;;;1.80;97.90;;;;;;5090210;28;20794;-78
2024/01/06 08:56:57;;;;;;;20.00;16.40;;;1.80;97.90;;;;;;5091609;28;20422;-77
2024/01/06 08:59:23;;;;;;;20.45;16.38;;;1.80;98.00;;;;;;5089269;28;20414;-78
2024/01/06 09:01:49;;;;;;;20.53;16.57;;;1.80;97.90;;;;;;5090691;28;20789;-77
2024/01/06 09:04:14;;;;;;;20.70;15.83;;;1.80;97.90;;;;;;5084187;28;20427;-77
2024/01/06 09:06:41;;;;;;;19.73;15.48;;;1.90;97.90;;;;;;5091094;28;20393;-77
2024/01/06 09:09:08;;;;;;;20.95;14.73;;;1.90;97.90;;;;;;5089033;28;20451;-79
2024/01/06 09:11:34;;;;;;;19.00;14.52;;;1.80;97.60;;;;;;5090996;28;20400;-79
2024/01/06 09:14:00;;;;;;;20.30;15.40;;;1.80;97.50;;;;;;5078328;28;20411;-79
2024/01/06 09:16:26;;;;;;;18.65;14.60;;;1.90;97.70;;;;;;5084161;28;20400;-78
2024/01/06 09:18:52;;;;;;;20.13;15.27;;;1.90;97.70;;;;;;5085478;28;20405;-78
2024/01/06 09:21:17;;;;;;;18.98;14.40;;;1.90;97.60;;;;;;5092755;28;20831;-79
2024/01/06 09:23:43;;;;;;;18.47;14.70;;;1.90;97.70;;;;;;5088032;28;20841;-78
2024/01/06 09:26:09;;;;;;;17.23;14.23;;;1.90;97.60;;;;;;5097688;28;20424;-78
2024/01/06 09:28:35;;;;;;;19.23;13.80;;;1.80;97.50;;;;;;5093794;28;20551;-77
2024/01/06 09:31:00;;;;;;;20.90;14.13;;;1.90;97.40;;;;;;5089110;28;20495;-78
2024/01/06 09:33:26;;;;;;;17.98;13.38;;;1.80;97.30;;;;;;5087989;28;20780;-78
2024/01/06 09:35:51;;;;;;;17.00;12.67;;;1.80;97.20;;;;;;5089156;28;20434;-77
2024/01/06 09:38:18;;;;;;;20.13;12.00;;;1.80;97.10;;;;;;5088944;28;20795;-78
2024/01/06 09:40:44;;;;;;;13.82;10.73;;;1.80;96.70;;;;;;5091339;28;20424;-79
2024/01/06 09:43:13;;;;;;;16.02;11.00;;;1.80;96.10;;;;;;5093572;28;20796;-78
2024/01/06 09:45:42;;;;;;;12.73;10.17;;;1.90;96.20;;;;;;5104156;28;20430;-77
2024/01/06 09:48:14;;;;;;;15.57;10.30;;;1.90;96.20;;;;;;5104725;28;20766;-77
2024/01/06 09:50:41;;;;;;;14.07;9.67;;;1.90;95.90;;;;;;5089635;28;20426;-79
2024/01/06 09:53:10;;;;;;;12.05;9.48;;;1.90;95.90;;;;;;5098135;28;20778;-78
2024/01/06 09:55:37;;;;;;;13.18;9.35;;;1.90;95.70;;;;;;5092700;28;20452;-78
2024/01/06 09:58:02;;;;;;;12.35;9.30;;;1.90;95.20;;;;;;5095622;28;20893;-79
2024/01/06 10:00:28;;;;;;;14.65;9.82;;;1.90;95.10;;;;;;5091998;28;20436;-79
2024/01/06 10:02:54;;;;;;;13.40;9.70;;;1.90;95.00;;;;;;5101305;28;20456;-78
2024/01/06 10:05:21;;;;;;;13.55;9.73;;;2.00;95.20;;;;;;5088740;28;20430;-78
2024/01/06 10:07:47;;;;;;;14.07;9.93;;;2.00;95.10;;;;;;5098855;28;20400;-78
2024/01/06 10:10:14;;;;;;;12.15;9.73;;;2.00;95.10;;;;;;5097526;28;20432;-79
2024/01/06 10:12:41;;;;;;;12.60;10.00;;;2.00;95.30;;;;;;5091417;28;20425;-79
2024/01/06 10:15:09;;;;;;;13.30;10.52;;;2.00;94.30;;;;;;5096553;28;20440;-79
2024/01/06 10:17:39;;;;;;;12.93;10.13;;;2.00;94.50;;;;;;5092578;28;21169;-79
2024/01/06 10:20:12;;;;;;;12.75;10.20;;;2.00;94.20;;;;;;5094810;28;20429;-79
2024/01/06 10:22:40;;;;;;;12.60;9.82;;;2.00;94.10;;;;;;5088747;28;20405;-79
2024/01/06 10:25:07;;;;;;;12.35;9.95;;;2.00;94.40;;;;;;5096705;28;20436;-79
2024/01/06 10:27:37;;;;;;;11.98;9.73;;;2.00;94.10;;;;;;5094446;28;20398;-79
2024/01/06 10:30:03;;;;;;;10.82;9.23;;;2.00;94.20;;;;;;5091579;28;20416;-79
2024/01/06 10:32:36;;;;;;;12.73;9.27;;;2.00;94.00;;;;;;5094486;28;20406;-79
2024/01/06 10:35:03;;;;;;;12.05;9.25;;;2.00;94.20;;;;;;5098020;28;20384;-79
2024/01/06 10:37:29;;;;;;;11.93;9.40;;;2.00;93.50;;;;;;5085131;28;20414;-79
2024/01/06 10:40:18;;;;;;;12.85;9.93;;;2.00;93.10;;;;;;5098651;28;20479;-79
2024/01/06 10:42:45;;;;;;;12.52;10.07;;;2.00;93.50;;;;;;5084322;28;20865;-79
2024/01/06 10:45:14;;;;;;;13.07;9.90;;;2.00;93.70;;;;;;5090661;28;20549;-79
2024/01/06 10:47:45;;;;;;;12.82;10.05;;;2.00;93.60;;;;;;5089641;28;20462;-79
2024/01/06 10:50:11;;;;;;;16.80;10.85;;;2.10;94.00;;;;;;5085539;28;20428;-78
2024/01/06 10:52:40;;;;;;;13.50;10.13;;;2.00;94.30;;;;;;5085695;28;20414;-79
2024/01/06 10:55:06;;;;;;;15.00;10.97;;;2.10;94.50;;;;;;5090601;28;20397;-79
2024/01/06 10:57:33;;;;;;;14.83;10.30;;;2.10;94.40;;;;;;5100617;28;20412;-79
2024/01/06 10:59:59;;;;;;;14.25;10.50;;;2.10;94.20;;;;;;5103905;28;20928;-79
2024/01/06 11:02:26;;;;;;;18.55;10.80;;;2.10;94.00;;;;;;5106444;28;20415;-79
2024/01/06 11:04:52;;;;;;;15.10;10.90;;;2.00;93.70;;;;;;5098228;28;20433;-79
2024/01/06 11:07:20;;;;;;;16.80;10.88;;;2.00;93.90;;;;;;5100899;28;20413;-79
2024/01/06 11:10:03;;;;;;;13.77;10.75;;;2.00;93.70;;;;;;5099442;28;20441;-79
2024/01/06 11:12:28;;;;;;;13.32;10.23;;;2.00;94.10;;;;;;5093115;28;20408;-79
2024/01/06 11:14:54;;;;;;;16.77;10.52;;;2.00;94.00;;;;;;5090347;28;20413;-79
2024/01/06 11:17:50;;;;;;;16.95;10.60;;;2.00;94.20;;;;;;5100197;28;20404;-79
2024/01/06 11:20:22;;;;;;;12.98;9.20;;;2.10;93.80;;;;;;5083054;28;20421;-78
2024/01/06 11:22:49;;;;;;;13.93;9.43;;;2.10;93.50;;;;;;5092815;28;20915;-78
2024/01/06 11:25:20;;;;;;;13.20;9.85;;;2.10;93.60;;;;;;5091254;28;20441;-78
2024/01/06 11:27:48;;;;;;;13.43;10.07;;;2.10;93.50;;;;;;5097442;28;20496;-80
2024/01/06 11:30:22;;;;;;;14.48;10.07;;;2.10;92.80;;;;;;5092196;28;20410;-79
2024/01/06 11:32:47;;;;;;;14.05;9.27;;;2.10;93.30;;;;;;5100686;28;20450;-79
2024/01/06 11:35:15;;;;;;;13.32;10.32;;;2.10;93.30;;;;;;5088968;28;20456;-79
2024/01/06 11:37:41;;;;;;;14.23;10.38;;;2.10;93.30;;;;;;5088521;28;20416;-79
2024/01/06 11:40:13;;;;;;;13.10;9.98;;;2.10;93.30;;;;;;5101906;28;20499;-78
2024/01/06 11:42:41;;;;;;;12.90;9.57;;;2.10;93.10;;;;;;5101237;28;20432;-78
2024/01/06 11:45:07;;;;;;;13.15;9.75;;;2.10;92.80;;;;;;5107294;28;20480;-79
2024/01/06 11:47:36;;;;;;;11.88;9.18;;;2.10;92.70;;;;;;5103705;28;20419;-79
2024/01/06 11:50:05;;;;;;;12.80;9.73;;;2.10;92.60;;;;;;5106220;28;20400;-79
2024/01/06 11:52:33;;;;;;;12.48;9.48;;;2.10;92.60;;;;;;5104834;28;20412;-80
2024/01/06 11:54:59;;;;;;;12.50;9.75;;;2.10;92.40;;;;;;5101453;28;20418;-79
2024/01/06 11:57:28;;;;;;;11.40;9.20;;;2.10;92.70;;;;;;5100962;28;21301;-78
2024/01/06 11:59:54;;;;;;;12.20;8.95;;;2.10;92.50;;;;;;5100280;28;20402;-79
2024/01/06 12:02:22;;;;;;;13.07;9.95;;;2.10;92.50;;;;;;5096163;28;20763;-78
2024/01/06 12:04:52;;;;;;;12.95;9.48;;;2.10;92.20;;;;;;5102420;28;20422;-79
2024/01/06 12:07:24;;;;;;;11.95;9.50;;;2.10;92.50;;;;;;5100428;28;20807;-78
2024/01/06 12:10:02;;;;;;;12.35;9.65;;;2.10;92.80;;;;;;5095662;28;20452;-78
2024/01/06 12:12:27;;;;;;;11.55;9.23;;;2.10;93.00;;;;;;5093715;28;20432;-79
2024/01/06 12:14:53;;;;;;;11.48;8.75;;;2.10;92.10;;;;;;5103000;28;20454;-78
2024/01/06 12:17:21;;;;;;;10.80;8.80;;;2.10;91.90;;;;;;5104806;28;20397;-78
2024/01/06 12:19:47;;;;;;;10.97;8.90;;;2.10;91.90;;;;;;5097734;28;20421;-79
2024/01/06 12:22:14;;;;;;;11.65;9.20;;;2.10;92.20;;;;;;5093505;28;20449;-80
2024/01/06 12:24:41;;;;;;;12.20;9.48;;;2.10;91.90;;;;;;5092661;28;20471;-79
2024/01/06 12:27:11;;;;;;;11.32;9.10;;;2.10;92.10;;;;;;5086785;28;20472;-79
2024/01/06 12:29:39;;;;;;;11.55;9.60;;;2.10;91.70;;;;;;5098001;28;20463;-79
2024/01/06 12:32:05;;;;;;;12.65;9.43;;;2.10;91.60;;;;;;5087679;28;21299;-79
2024/01/06 12:34:31;;;;;;;12.40;9.32;;;2.10;91.90;;;;;;5098761;28;20462;-79